createdAt,value
2022-10-19T01:13:05.298Z,18.83
2022-10-19T01:17:18.295Z,18.82
2022-10-19T01:21:26.671Z,18.82
2022-10-19T01:25:47.146Z,18.84
2022-10-19T01:30:10.185Z,18.81
2022-10-19T01:34:16.826Z,18.89
2022-10-19T01:38:31.291Z,18.84
2022-10-19T01:42:44.428Z,18.87
2022-10-19T01:46:54.692Z,18.85
2022-10-19T01:51:02.844Z,18.82
2022-10-19T01:55:07.035Z,18.76
2022-10-19T01:59:13.320Z,18.72
2022-10-19T02:03:19.285Z,18.69
2022-10-19T02:07:25.391Z,18.68
2022-10-19T02:11:28.951Z,18.65
2022-10-19T02:15:35.447Z,18.62
2022-10-19T02:19:40.505Z,18.61
2022-10-19T02:23:43.624Z,18.57
2022-10-19T02:27:47.268Z,18.54
2022-10-19T02:31:51.325Z,18.51
2022-10-19T02:35:56.333Z,18.49
2022-10-19T02:39:59.632Z,18.46
2022-10-19T02:44:07.061Z,18.43
2022-10-19T02:48:14.581Z,18.41
2022-10-19T02:52:19.207Z,18.38
2022-10-19T02:56:23.447Z,18.36
2022-10-19T03:00:26.944Z,18.32
2022-10-19T03:04:30.482Z,18.30
2022-10-19T03:08:34.914Z,18.28
2022-10-19T03:12:38.407Z,18.25
2022-10-19T03:16:42.122Z,18.25
2022-10-19T03:20:45.696Z,18.22
2022-10-19T03:24:50.597Z,18.23
2022-10-19T03:28:53.645Z,18.22
2022-10-19T03:32:57.465Z,18.21
2022-10-19T03:37:00.552Z,18.21
2022-10-19T03:41:07.452Z,18.22
2022-10-19T03:45:11.070Z,18.19
2022-10-19T03:49:14.970Z,18.18
2022-10-19T03:53:18.748Z,18.15
2022-10-19T03:57:23.776Z,18.14
2022-10-19T04:01:29.121Z,18.12
2022-10-19T04:05:32.650Z,18.11
2022-10-19T04:09:35.736Z,18.10
2022-10-19T04:13:41.197Z,18.10
2022-10-19T04:17:47.880Z,18.09
2022-10-19T04:21:51.565Z,18.09
2022-10-19T04:25:55.212Z,18.09
2022-10-19T04:29:59.688Z,18.10
2022-10-19T04:34:03.317Z,18.11
2022-10-19T04:38:06.311Z,18.10
2022-10-19T04:42:09.869Z,18.08
2022-10-19T04:46:15.887Z,18.05
2022-10-19T04:50:18.835Z,18.01
2022-10-19T04:54:22.371Z,18.00
2022-10-19T04:58:25.894Z,17.98
2022-10-19T05:02:30.986Z,17.98
2022-10-19T05:06:34.085Z,17.96
2022-10-19T05:10:37.764Z,17.97
2022-10-19T05:14:42.891Z,17.98
2022-10-19T05:18:50.433Z,18.02
2022-10-19T05:22:54.287Z,18.05
2022-10-19T05:26:57.328Z,18.07
2022-10-19T05:31:07.927Z,18.12
2022-10-19T05:35:12.227Z,18.13
2022-10-19T05:39:17.745Z,18.16
2022-10-19T05:43:32.895Z,18.18
2022-10-19T05:47:36.873Z,18.21
2022-10-19T05:51:42.227Z,18.23
2022-10-19T05:55:45.312Z,18.23
2022-10-19T05:59:48.782Z,18.27
2022-10-19T06:03:54.626Z,18.31
2022-10-19T06:07:58.956Z,18.37
2022-10-19T06:12:02.445Z,18.41
2022-10-19T06:16:10.156Z,18.42
2022-10-19T06:20:13.615Z,18.44
2022-10-19T06:24:18.527Z,18.47
2022-10-19T06:28:22.009Z,18.49
2022-10-19T06:32:25.477Z,18.51
2022-10-19T06:36:30.653Z,18.51
2022-10-19T06:40:36.581Z,18.61
2022-10-19T06:44:39.940Z,18.68
2022-10-19T06:48:42.914Z,18.77
2022-10-19T06:52:46.351Z,18.87
2022-10-19T06:56:51.216Z,19.00
2022-10-19T07:00:58.407Z,19.11
2022-10-19T07:05:06.977Z,19.19
2022-10-19T07:09:11.285Z,19.28
2022-10-19T07:13:15.914Z,19.37
2022-10-19T07:17:19.615Z,19.48
2022-10-19T07:21:24.460Z,19.60
2022-10-19T07:25:27.931Z,19.75
2022-10-19T07:29:32.542Z,19.91
2022-10-19T07:33:36.202Z,20.05
2022-10-19T07:37:39.208Z,20.18
2022-10-19T07:41:42.299Z,20.29
2022-10-19T07:45:47.150Z,20.33
2022-10-19T07:49:50.521Z,20.30
2022-10-19T07:53:53.763Z,20.22
2022-10-19T07:58:01.967Z,20.19
2022-10-19T08:02:08.146Z,20.16
2022-10-19T08:06:14.018Z,20.15
2022-10-19T08:10:17.725Z,20.19
2022-10-19T08:14:21.131Z,20.31
2022-10-19T08:18:26.057Z,20.49
2022-10-19T08:22:29.116Z,20.69
2022-10-19T08:26:34.474Z,20.90
2022-10-19T08:30:38.437Z,21.10
2022-10-19T08:34:43.688Z,21.30
2022-10-19T08:38:48.620Z,21.45
2022-10-19T08:42:59.856Z,21.61
2022-10-19T08:47:13.820Z,21.76
2022-10-19T08:51:19.128Z,21.92
2022-10-19T08:55:30.642Z,22.07
2022-10-19T08:59:39.822Z,22.19
2022-10-19T09:03:55.431Z,22.31
2022-10-19T09:08:01.667Z,22.36
2022-10-19T09:12:08.134Z,22.40
2022-10-19T09:16:14.493Z,22.40
2022-10-19T09:20:21.059Z,22.41
2022-10-19T09:24:33.719Z,22.44
2022-10-19T09:28:42.472Z,22.54
2022-10-19T09:32:45.618Z,22.65
2022-10-19T09:36:54.681Z,22.77
2022-10-19T09:41:00.535Z,23.02
2022-10-19T09:45:16.463Z,23.18
2022-10-19T09:49:21.060Z,23.29
2022-10-19T09:53:24.768Z,23.36
2022-10-19T09:57:29.597Z,23.30
2022-10-19T10:01:41.691Z,23.23
2022-10-19T10:05:49.638Z,23.18
2022-10-19T10:09:54.606Z,23.19
2022-10-19T10:14:03.958Z,23.30
2022-10-19T10:18:17.701Z,23.47
2022-10-19T10:22:28.636Z,23.60
2022-10-19T10:26:33.891Z,23.74
2022-10-19T10:30:39.045Z,24.02
2022-10-19T10:34:51.855Z,24.29
2022-10-19T10:43:18.747Z,24.57
2022-10-19T10:47:23.801Z,24.72
2022-10-19T10:51:34.650Z,24.87
2022-10-19T10:55:38.248Z,24.99
2022-10-19T10:59:57.468Z,25.21
2022-10-19T11:04:08.856Z,25.47
2022-10-19T11:08:20.961Z,25.52
2022-10-19T11:12:36.359Z,25.56
2022-10-19T11:16:48.019Z,25.56
2022-10-19T11:21:01.958Z,25.66
2022-10-19T11:25:21.215Z,25.67
2022-10-19T11:29:48.828Z,25.60
2022-10-19T11:34:02.577Z,25.55
2022-10-19T11:38:30.124Z,25.48
2022-10-19T11:42:49.284Z,25.38
2022-10-19T11:47:09.980Z,25.41
2022-10-19T11:51:21.618Z,25.38
2022-10-19T11:55:37.070Z,25.42
2022-10-19T12:00:00.172Z,25.43
2022-10-19T12:04:36.764Z,25.61
2022-10-19T12:08:59.316Z,25.67
2022-10-19T12:13:07.868Z,25.77
2022-10-19T12:21:40.905Z,25.68
2022-10-19T12:25:46.162Z,25.65
2022-10-19T12:29:51.322Z,25.73
2022-10-19T12:34:02.432Z,25.77
2022-10-19T12:38:10.553Z,25.83
2022-10-19T12:42:21.605Z,25.88
2022-10-19T12:46:37.300Z,25.91
2022-10-19T12:51:03.916Z,25.88
2022-10-19T12:55:28.021Z,25.92
2022-10-19T12:59:34.214Z,25.88
2022-10-19T13:03:42.331Z,25.76
2022-10-19T13:12:36.885Z,25.22
2022-10-19T13:16:58.848Z,24.88
2022-10-19T13:21:03.896Z,24.71
2022-10-19T13:25:31.219Z,24.75
2022-10-19T13:29:45.195Z,24.90
2022-10-19T13:33:56.631Z,25.11
2022-10-19T13:38:26.915Z,25.29
2022-10-19T13:42:30.643Z,25.38
2022-10-19T13:46:50.330Z,25.56
2022-10-19T13:50:56.999Z,25.70
2022-10-19T13:55:34.293Z,25.85
2022-10-19T13:59:59.721Z,25.99
2022-10-19T14:04:26.708Z,26.07
2022-10-19T14:09:05.926Z,26.12
2022-10-19T14:13:16.391Z,26.14
2022-10-19T14:17:21.859Z,26.15
2022-10-19T14:21:33.649Z,26.10
2022-10-19T14:25:36.752Z,26.03
2022-10-19T14:29:47.908Z,26.03
2022-10-19T14:33:54.408Z,26.02
2022-10-19T14:37:58.640Z,25.97
2022-10-19T14:42:06.219Z,25.93
2022-10-19T14:46:15.920Z,25.83
2022-10-19T14:50:19.612Z,25.65
2022-10-19T14:54:30.774Z,25.59
2022-10-19T14:58:40.993Z,25.48
2022-10-19T15:02:49.202Z,25.34
2022-10-19T15:06:53.038Z,25.17
2022-10-19T15:10:56.680Z,25.00
2022-10-19T15:14:59.921Z,24.78
2022-10-19T15:19:27.769Z,24.59
2022-10-19T15:23:42.396Z,24.38
2022-10-19T15:27:47.781Z,24.22
2022-10-19T15:31:52.994Z,24.04
2022-10-19T15:36:07.331Z,23.87
2022-10-19T15:40:13.753Z,23.60
2022-10-19T15:44:33.963Z,23.25
2022-10-19T15:48:51.213Z,22.88
2022-10-19T15:53:00.723Z,22.50
2022-10-19T15:57:03.696Z,22.11
2022-10-19T16:01:13.310Z,21.76
2022-10-19T16:05:16.897Z,21.39
2022-10-19T16:09:24.476Z,21.06
2022-10-19T16:13:27.651Z,20.73
2022-10-19T16:17:31.300Z,20.46
2022-10-19T16:21:36.595Z,20.17
2022-10-19T16:25:41.745Z,19.99
2022-10-19T16:29:45.914Z,19.77
2022-10-19T16:33:49.708Z,19.58
2022-10-19T16:42:19.073Z,19.20
2022-10-19T16:46:23.118Z,18.99
2022-10-19T16:50:26.691Z,18.79
2022-10-19T16:54:32.170Z,18.62
2022-10-19T16:58:37.669Z,18.52
2022-10-19T17:02:43.186Z,18.42
2022-10-19T17:06:50.373Z,18.30
2022-10-19T17:10:54.886Z,18.19
2022-10-19T17:15:29.964Z,18.07
2022-10-19T17:19:23.300Z,17.95
2022-10-19T17:23:26.859Z,17.83
2022-10-19T17:27:32.919Z,17.72
2022-10-19T17:31:38.150Z,17.61
2022-10-19T17:35:41.868Z,17.49
2022-10-19T17:39:44.933Z,17.37
2022-10-19T17:43:52.340Z,17.30
2022-10-19T17:47:58.722Z,17.22
2022-10-19T17:52:02.470Z,17.15
2022-10-19T17:56:09.182Z,17.07
2022-10-19T18:04:17.015Z,17.01
2022-10-19T18:08:20.811Z,16.98
2022-10-19T18:12:24.693Z,16.93
2022-10-19T18:16:30.745Z,16.92
2022-10-19T18:20:36.251Z,16.89
2022-10-19T18:24:41.449Z,16.89
2022-10-19T18:28:45.842Z,16.87
2022-10-19T18:32:51.234Z,16.86
2022-10-19T18:36:57.658Z,16.85
2022-10-19T18:41:06.124Z,16.82
2022-10-19T18:45:12.817Z,16.78
2022-10-19T18:49:19.370Z,16.77
2022-10-19T18:53:25.060Z,16.76
2022-10-19T18:57:31.724Z,16.70
2022-10-19T19:01:35.884Z,16.62
2022-10-19T19:05:39.755Z,16.57
2022-10-19T19:09:44.734Z,16.54
2022-10-19T19:13:49.898Z,16.51
2022-10-19T19:17:57.135Z,16.54
2022-10-19T19:22:07.876Z,16.52
2022-10-19T19:26:14.748Z,16.55
2022-10-19T19:30:18.769Z,16.56
2022-10-19T19:34:22.707Z,16.55
2022-10-19T19:38:26.531Z,16.56
2022-10-19T19:42:32.044Z,16.51
2022-10-19T19:46:36.632Z,16.38
2022-10-19T19:50:40.499Z,16.22
2022-10-19T19:54:44.318Z,16.07
2022-10-19T19:58:49.167Z,15.92
2022-10-19T20:02:56.806Z,15.78
2022-10-19T20:06:59.964Z,15.59
2022-10-19T20:11:05.271Z,15.45
2022-10-19T20:15:11.300Z,15.37
2022-10-19T20:19:15.470Z,15.25
2022-10-19T20:23:19.015Z,15.15
2022-10-19T20:27:22.148Z,15.05
2022-10-19T20:35:31.813Z,14.80
2022-10-19T20:39:35.411Z,14.76
2022-10-19T20:43:39.301Z,14.75
2022-10-19T20:47:44.371Z,14.75
2022-10-19T20:51:47.827Z,14.76
2022-10-19T20:55:51.420Z,14.76
2022-10-19T20:59:54.666Z,14.76
2022-10-19T21:04:02.140Z,14.76
2022-10-19T21:08:05.488Z,14.75
2022-10-19T21:12:09.025Z,14.75
2022-10-19T21:16:13.243Z,14.73
2022-10-19T21:20:18.534Z,14.72
2022-10-19T21:24:23.660Z,14.65
2022-10-19T21:28:27.240Z,14.68
2022-10-19T21:32:30.262Z,14.66
2022-10-19T21:36:34.678Z,14.65
2022-10-19T21:40:38.294Z,14.65
2022-10-19T21:44:41.793Z,14.64
2022-10-19T21:48:45.481Z,14.56
2022-10-19T21:52:50.296Z,14.58
2022-10-19T21:56:55.853Z,14.51
2022-10-19T22:01:05.369Z,14.44
2022-10-19T22:05:10.497Z,14.34
2022-10-19T22:09:17.796Z,14.21
2022-10-19T22:13:21.210Z,14.06
2022-10-19T22:17:24.853Z,13.90
2022-10-19T22:21:29.643Z,13.76
2022-10-19T22:25:35.952Z,13.59
2022-10-19T22:29:39.480Z,13.47
2022-10-19T22:33:43.058Z,13.30
2022-10-19T22:37:46.366Z,13.26
2022-10-19T22:41:51.139Z,13.21
2022-10-19T22:45:54.623Z,13.16
2022-10-19T22:49:57.713Z,13.15
2022-10-19T22:54:01.244Z,13.21
2022-10-19T22:58:06.740Z,13.23
2022-10-19T23:02:09.762Z,13.30
2022-10-19T23:06:15.545Z,13.32
2022-10-19T23:10:19.506Z,13.30
2022-10-19T23:14:24.080Z,13.27
2022-10-19T23:18:27.683Z,13.21
2022-10-19T23:22:31.097Z,13.16
2022-10-19T23:26:34.223Z,13.11
2022-10-19T23:30:40.690Z,13.15
2022-10-19T23:34:47.442Z,13.13
2022-10-19T23:38:53.003Z,13.13
2022-10-19T23:42:56.541Z,13.12
2022-10-19T23:47:01.488Z,13.15
2022-10-19T23:51:06.624Z,13.14
2022-10-19T23:55:10.844Z,13.12
2022-10-19T23:59:14.224Z,13.12
